createdAt,value
2023-05-09T00:14:28.294Z,22.69
2023-05-09T00:43:19.046Z,22.67
2023-05-09T01:12:14.346Z,22.66
2023-05-09T01:41:08.364Z,22.65
2023-05-09T02:10:05.692Z,22.64
2023-05-09T02:39:03.012Z,22.63
2023-05-09T03:08:00.526Z,22.62
2023-05-09T03:36:52.791Z,22.62
2023-05-09T04:05:46.146Z,22.59
2023-05-09T04:34:37.908Z,22.7
2023-05-09T05:03:35.913Z,22.85
2023-05-09T05:32:19.121Z,22.82
2023-05-09T06:01:13.648Z,22.91
2023-05-09T06:30:24.441Z,22.93
2023-05-09T06:58:34.512Z,23.07
2023-05-09T07:27:26.150Z,23.09
2023-05-09T07:56:16.489Z,22.94
2023-05-09T08:24:55.228Z,22.85
2023-05-09T08:53:42.403Z,22.78
2023-05-09T09:22:32.560Z,22.7
2023-05-09T09:51:18.850Z,22.63
2023-05-09T10:19:59.241Z,22.54
2023-05-09T10:48:42.514Z,22.53
2023-05-09T11:17:21.867Z,22.7
2023-05-09T11:46:03.594Z,23.03
2023-05-09T12:14:57.216Z,23.05
2023-05-09T12:43:36.398Z,22.96
2023-05-09T13:12:16.778Z,22.79
2023-05-09T13:40:53.522Z,22.8
2023-05-09T14:09:36.686Z,22.85
2023-05-09T14:38:20.404Z,22.76
2023-05-09T15:07:00.131Z,22.72
2023-05-09T15:35:44.378Z,22.68
2023-05-09T16:04:29.290Z,22.67
2023-05-09T16:33:19.804Z,22.62
2023-05-09T17:02:05.995Z,22.68
2023-05-09T17:30:52.119Z,22.68
2023-05-09T17:59:24.449Z,22.68
2023-05-09T18:28:06.653Z,22.67
2023-05-09T18:56:39.214Z,22.65
2023-05-09T19:25:21.137Z,22.64
2023-05-09T19:54:10.242Z,22.62
2023-05-09T20:22:52.834Z,22.61
2023-05-09T20:51:36.639Z,22.6
2023-05-09T21:20:20.568Z,22.59
2023-05-09T21:49:09.369Z,22.58
2023-05-09T22:18:00.552Z,22.57
2023-05-09T22:46:43.628Z,22.57
2023-05-09T23:15:34.743Z,22.57
2023-05-09T23:44:24.057Z,22.55
